sensor_id;sensor_type;location;lat;lon;timestamp;P1;durP1;ratioP1;P2;durP2;ratioP2
48215;SDS011;34005;48.844;10.098;2022-09-03T00:00:59;2.20;;;0.80;;
48215;SDS011;34005;48.844;10.098;2022-09-03T00:03:33;0.98;;;0.85;;
48215;SDS011;34005;48.844;10.098;2022-09-03T00:06:09;1.23;;;0.90;;
48215;SDS011;34005;48.844;10.098;2022-09-03T00:08:43;2.92;;;0.95;;
48215;SDS011;34005;48.844;10.098;2022-09-03T00:11:17;2.08;;;0.75;;
48215;SDS011;34005;48.844;10.098;2022-09-03T00:13:48;0.73;;;0.70;;
48215;SDS011;34005;48.844;10.098;2022-09-03T00:16:21;0.80;;;0.80;;
48215;SDS011;34005;48.844;10.098;2022-09-03T00:18:54;2.05;;;0.90;;
48215;SDS011;34005;48.844;10.098;2022-09-03T00:21:30;3.15;;;1.17;;
48215;SDS011;34005;48.844;10.098;2022-09-03T00:24:04;0.88;;;0.88;;
48215;SDS011;34005;48.844;10.098;2022-09-03T00:26:41;2.83;;;1.13;;
48215;SDS011;34005;48.844;10.098;2022-09-03T00:29:12;1.00;;;0.90;;
48215;SDS011;34005;48.844;10.098;2022-09-03T00:31:44;1.42;;;0.95;;
48215;SDS011;34005;48.844;10.098;2022-09-03T00:34:15;0.93;;;0.60;;
48215;SDS011;34005;48.844;10.098;2022-09-03T00:36:48;2.90;;;0.80;;
48215;SDS011;34005;48.844;10.098;2022-09-03T00:39:16;2.63;;;1.33;;
48215;SDS011;34005;48.844;10.098;2022-09-03T00:41:51;1.20;;;1.05;;
48215;SDS011;34005;48.844;10.098;2022-09-03T00:44:37;1.95;;;0.70;;
48215;SDS011;34005;48.844;10.098;2022-09-03T00:47:14;1.38;;;1.10;;
48215;SDS011;34005;48.844;10.098;2022-09-03T00:49:54;2.50;;;0.90;;
48215;SDS011;34005;48.844;10.098;2022-09-03T00:52:33;2.28;;;1.10;;
48215;SDS011;34005;48.844;10.098;2022-09-03T00:55:12;2.53;;;0.90;;
48215;SDS011;34005;48.844;10.098;2022-09-03T00:57:52;1.05;;;0.80;;
48215;SDS011;34005;48.844;10.098;2022-09-03T01:00:29;1.48;;;1.13;;
48215;SDS011;34005;48.844;10.098;2022-09-03T01:03:00;0.90;;;0.90;;
48215;SDS011;34005;48.844;10.098;2022-09-03T01:05:37;0.90;;;0.77;;
48215;SDS011;34005;48.844;10.098;2022-09-03T01:08:13;0.82;;;0.80;;
48215;SDS011;34005;48.844;10.098;2022-09-03T01:10:59;0.80;;;0.80;;
48215;SDS011;34005;48.844;10.098;2022-09-03T01:13:37;2.67;;;1.00;;
48215;SDS011;34005;48.844;10.098;2022-09-03T01:16:11;1.58;;;1.17;;
48215;SDS011;34005;48.844;10.098;2022-09-03T01:18:48;1.73;;;1.23;;
48215;SDS011;34005;48.844;10.098;2022-09-03T01:21:31;3.22;;;1.20;;
48215;SDS011;34005;48.844;10.098;2022-09-03T01:24:25;1.10;;;1.00;;
48215;SDS011;34005;48.844;10.098;2022-09-03T01:27:08;1.55;;;0.85;;
48215;SDS011;34005;48.844;10.098;2022-09-03T01:29:48;2.38;;;1.13;;
48215;SDS011;34005;48.844;10.098;2022-09-03T01:32:24;1.95;;;1.10;;
48215;SDS011;34005;48.844;10.098;2022-09-03T01:35:01;2.67;;;1.20;;
48215;SDS011;34005;48.844;10.098;2022-09-03T01:37:37;1.20;;;1.10;;
48215;SDS011;34005;48.844;10.098;2022-09-03T01:40:15;1.20;;;0.82;;
48215;SDS011;34005;48.844;10.098;2022-09-03T01:42:49;1.33;;;1.02;;
48215;SDS011;34005;48.844;10.098;2022-09-03T01:45:32;1.10;;;1.05;;
48215;SDS011;34005;48.844;10.098;2022-09-03T01:48:20;1.33;;;1.23;;
48215;SDS011;34005;48.844;10.098;2022-09-03T01:51:01;1.90;;;1.42;;
48215;SDS011;34005;48.844;10.098;2022-09-03T01:56:53;1.70;;;1.20;;
48215;SDS011;34005;48.844;10.098;2022-09-03T01:59:56;3.03;;;1.30;;
48215;SDS011;34005;48.844;10.098;2022-09-03T02:02:29;1.15;;;1.05;;
48215;SDS011;34005;48.844;10.098;2022-09-03T02:04:58;1.42;;;1.20;;
48215;SDS011;34005;48.844;10.098;2022-09-03T02:07:29;1.48;;;1.38;;
48215;SDS011;34005;48.844;10.098;2022-09-03T02:10:00;2.30;;;1.35;;
48215;SDS011;34005;48.844;10.098;2022-09-03T02:12:30;1.17;;;1.00;;
48215;SDS011;34005;48.844;10.098;2022-09-03T02:15:00;1.35;;;1.25;;
48215;SDS011;34005;48.844;10.098;2022-09-03T02:17:33;3.67;;;1.45;;
48215;SDS011;34005;48.844;10.098;2022-09-03T02:20:03;1.83;;;1.25;;
48215;SDS011;34005;48.844;10.098;2022-09-03T02:22:35;1.15;;;1.00;;
48215;SDS011;34005;48.844;10.098;2022-09-03T02:25:03;1.35;;;1.25;;
48215;SDS011;34005;48.844;10.098;2022-09-03T02:27:31;1.38;;;1.17;;
48215;SDS011;34005;48.844;10.098;2022-09-03T02:29:59;3.88;;;1.20;;
48215;SDS011;34005;48.844;10.098;2022-09-03T02:32:26;1.02;;;0.93;;
48215;SDS011;34005;48.844;10.098;2022-09-03T02:34:55;1.17;;;1.13;;
48215;SDS011;34005;48.844;10.098;2022-09-03T02:37:24;1.20;;;1.20;;
48215;SDS011;34005;48.844;10.098;2022-09-03T02:39:52;2.63;;;1.33;;
48215;SDS011;34005;48.844;10.098;2022-09-03T02:42:19;2.20;;;1.42;;
48215;SDS011;34005;48.844;10.098;2022-09-03T02:44:47;1.38;;;1.15;;
48215;SDS011;34005;48.844;10.098;2022-09-03T02:47:19;1.40;;;1.30;;
48215;SDS011;34005;48.844;10.098;2022-09-03T02:49:47;2.72;;;1.10;;
48215;SDS011;34005;48.844;10.098;2022-09-03T02:52:16;2.13;;;1.10;;
48215;SDS011;34005;48.844;10.098;2022-09-03T02:54:43;2.55;;;1.35;;
48215;SDS011;34005;48.844;10.098;2022-09-03T02:57:12;1.42;;;1.08;;
48215;SDS011;34005;48.844;10.098;2022-09-03T02:59:45;3.08;;;1.50;;
48215;SDS011;34005;48.844;10.098;2022-09-03T03:02:12;1.52;;;1.00;;
48215;SDS011;34005;48.844;10.098;2022-09-03T03:04:40;1.25;;;1.15;;
48215;SDS011;34005;48.844;10.098;2022-09-03T03:07:08;2.22;;;1.10;;
48215;SDS011;34005;48.844;10.098;2022-09-03T03:09:37;1.52;;;1.42;;
48215;SDS011;34005;48.844;10.098;2022-09-03T03:12:05;1.73;;;1.00;;
48215;SDS011;34005;48.844;10.098;2022-09-03T03:14:35;1.90;;;1.30;;
48215;SDS011;34005;48.844;10.098;2022-09-03T03:17:03;1.88;;;1.30;;
48215;SDS011;34005;48.844;10.098;2022-09-03T03:19:31;1.40;;;1.27;;
48215;SDS011;34005;48.844;10.098;2022-09-03T03:21:58;1.10;;;1.00;;
48215;SDS011;34005;48.844;10.098;2022-09-03T03:24:26;1.38;;;1.27;;
48215;SDS011;34005;48.844;10.098;2022-09-03T03:26:55;2.28;;;1.30;;
48215;SDS011;34005;48.844;10.098;2022-09-03T03:29:24;1.38;;;1.25;;
48215;SDS011;34005;48.844;10.098;2022-09-03T03:31:52;1.42;;;1.33;;
48215;SDS011;34005;48.844;10.098;2022-09-03T03:34:20;1.90;;;1.40;;
48215;SDS011;34005;48.844;10.098;2022-09-03T03:36:47;1.52;;;1.42;;
48215;SDS011;34005;48.844;10.098;2022-09-03T03:39:15;1.65;;;1.55;;
48215;SDS011;34005;48.844;10.098;2022-09-03T03:41:43;1.45;;;1.35;;
48215;SDS011;34005;48.844;10.098;2022-09-03T03:44:12;2.28;;;1.50;;
48215;SDS011;34005;48.844;10.098;2022-09-03T03:46:40;2.30;;;1.23;;
48215;SDS011;34005;48.844;10.098;2022-09-03T03:49:08;1.80;;;1.58;;
48215;SDS011;34005;48.844;10.098;2022-09-03T03:51:36;1.92;;;1.30;;
48215;SDS011;34005;48.844;10.098;2022-09-03T03:54:05;1.38;;;1.10;;
48215;SDS011;34005;48.844;10.098;2022-09-03T03:56:33;2.03;;;1.45;;
48215;SDS011;34005;48.844;10.098;2022-09-03T03:59:02;1.83;;;1.17;;
48215;SDS011;34005;48.844;10.098;2022-09-03T04:01:32;1.70;;;1.50;;
48215;SDS011;34005;48.844;10.098;2022-09-03T04:03:59;2.08;;;1.55;;
48215;SDS011;34005;48.844;10.098;2022-09-03T04:06:27;1.88;;;1.38;;
48215;SDS011;34005;48.844;10.098;2022-09-03T04:08:55;5.07;;;1.45;;
48215;SDS011;34005;48.844;10.098;2022-09-03T04:11:23;1.45;;;1.05;;
48215;SDS011;34005;48.844;10.098;2022-09-03T04:13:51;3.33;;;1.60;;
48215;SDS011;34005;48.844;10.098;2022-09-03T04:16:20;1.60;;;1.15;;
48215;SDS011;34005;48.844;10.098;2022-09-03T04:18:50;1.85;;;1.50;;
48215;SDS011;34005;48.844;10.098;2022-09-03T04:21:20;1.92;;;1.52;;
48215;SDS011;34005;48.844;10.098;2022-09-03T04:23:49;1.60;;;1.20;;
48215;SDS011;34005;48.844;10.098;2022-09-03T04:26:18;1.27;;;1.17;;
48215;SDS011;34005;48.844;10.098;2022-09-03T04:28:47;1.55;;;1.42;;
48215;SDS011;34005;48.844;10.098;2022-09-03T04:31:16;1.42;;;1.33;;
48215;SDS011;34005;48.844;10.098;2022-09-03T04:33:45;1.40;;;1.30;;
48215;SDS011;34005;48.844;10.098;2022-09-03T04:36:15;1.80;;;1.30;;
48215;SDS011;34005;48.844;10.098;2022-09-03T04:38:44;1.33;;;1.23;;
48215;SDS011;34005;48.844;10.098;2022-09-03T04:41:13;1.38;;;1.20;;
48215;SDS011;34005;48.844;10.098;2022-09-03T04:43:43;1.55;;;1.20;;
48215;SDS011;34005;48.844;10.098;2022-09-03T04:46:16;1.33;;;1.17;;
48215;SDS011;34005;48.844;10.098;2022-09-03T04:48:46;2.25;;;1.63;;
48215;SDS011;34005;48.844;10.098;2022-09-03T04:51:17;1.30;;;1.20;;
48215;SDS011;34005;48.844;10.098;2022-09-03T04:53:46;2.60;;;1.45;;
48215;SDS011;34005;48.844;10.098;2022-09-03T04:56:16;3.38;;;1.38;;
48215;SDS011;34005;48.844;10.098;2022-09-03T04:58:44;2.40;;;1.60;;
48215;SDS011;34005;48.844;10.098;2022-09-03T05:01:16;2.03;;;1.83;;
48215;SDS011;34005;48.844;10.098;2022-09-03T05:03:46;1.45;;;1.35;;
48215;SDS011;34005;48.844;10.098;2022-09-03T05:06:13;2.45;;;1.70;;
48215;SDS011;34005;48.844;10.098;2022-09-03T05:08:46;3.00;;;1.80;;
48215;SDS011;34005;48.844;10.098;2022-09-03T05:11:15;2.63;;;2.08;;
48215;SDS011;34005;48.844;10.098;2022-09-03T05:13:45;2.53;;;1.88;;
48215;SDS011;34005;48.844;10.098;2022-09-03T05:16:15;1.75;;;1.65;;
48215;SDS011;34005;48.844;10.098;2022-09-03T05:18:44;1.70;;;1.60;;
48215;SDS011;34005;48.844;10.098;2022-09-03T05:21:13;1.65;;;1.55;;
48215;SDS011;34005;48.844;10.098;2022-09-03T05:23:44;2.00;;;1.50;;
48215;SDS011;34005;48.844;10.098;2022-09-03T05:26:13;1.45;;;1.35;;
48215;SDS011;34005;48.844;10.098;2022-09-03T05:28:43;2.58;;;1.55;;
48215;SDS011;34005;48.844;10.098;2022-09-03T05:31:11;4.15;;;1.88;;
48215;SDS011;34005;48.844;10.098;2022-09-03T05:33:41;4.60;;;1.70;;
48215;SDS011;34005;48.844;10.098;2022-09-03T05:36:10;1.95;;;1.70;;
48215;SDS011;34005;48.844;10.098;2022-09-03T05:38:39;3.22;;;1.38;;
48215;SDS011;34005;48.844;10.098;2022-09-03T05:41:09;2.60;;;1.67;;
48215;SDS011;34005;48.844;10.098;2022-09-03T05:43:38;1.63;;;1.52;;
48215;SDS011;34005;48.844;10.098;2022-09-03T05:46:06;2.08;;;1.70;;
48215;SDS011;34005;48.844;10.098;2022-09-03T05:48:36;2.30;;;1.52;;
48215;SDS011;34005;48.844;10.098;2022-09-03T05:51:05;1.73;;;1.38;;
48215;SDS011;34005;48.844;10.098;2022-09-03T05:53:35;2.17;;;1.80;;
48215;SDS011;34005;48.844;10.098;2022-09-03T05:56:04;4.10;;;2.03;;
48215;SDS011;34005;48.844;10.098;2022-09-03T05:58:38;3.15;;;1.92;;
48215;SDS011;34005;48.844;10.098;2022-09-03T06:01:09;1.77;;;1.55;;
48215;SDS011;34005;48.844;10.098;2022-09-03T06:03:38;1.92;;;1.73;;
48215;SDS011;34005;48.844;10.098;2022-09-03T06:06:06;2.88;;;1.70;;
48215;SDS011;34005;48.844;10.098;2022-09-03T06:08:34;1.50;;;1.40;;
48215;SDS011;34005;48.844;10.098;2022-09-03T06:11:03;3.70;;;1.70;;
48215;SDS011;34005;48.844;10.098;2022-09-03T06:13:32;1.83;;;1.67;;
48215;SDS011;34005;48.844;10.098;2022-09-03T06:16:03;1.88;;;1.75;;
48215;SDS011;34005;48.844;10.098;2022-09-03T06:18:32;1.58;;;1.48;;
48215;SDS011;34005;48.844;10.098;2022-09-03T06:21:00;3.60;;;2.30;;
48215;SDS011;34005;48.844;10.098;2022-09-03T06:23:29;3.80;;;1.90;;
48215;SDS011;34005;48.844;10.098;2022-09-03T06:25:58;2.10;;;1.90;;
48215;SDS011;34005;48.844;10.098;2022-09-03T06:28:30;3.85;;;2.15;;
48215;SDS011;34005;48.844;10.098;2022-09-03T06:30:59;1.80;;;1.70;;
48215;SDS011;34005;48.844;10.098;2022-09-03T06:33:30;3.00;;;2.30;;
48215;SDS011;34005;48.844;10.098;2022-09-03T06:35:59;2.47;;;1.63;;
48215;SDS011;34005;48.844;10.098;2022-09-03T06:38:33;2.95;;;1.85;;
48215;SDS011;34005;48.844;10.098;2022-09-03T06:41:03;5.07;;;2.08;;
48215;SDS011;34005;48.844;10.098;2022-09-03T06:43:33;6.28;;;2.20;;
48215;SDS011;34005;48.844;10.098;2022-09-03T06:46:02;4.57;;;1.90;;
48215;SDS011;34005;48.844;10.098;2022-09-03T06:48:34;2.10;;;1.90;;
48215;SDS011;34005;48.844;10.098;2022-09-03T06:51:03;3.38;;;1.70;;
48215;SDS011;34005;48.844;10.098;2022-09-03T06:53:33;3.60;;;2.08;;
48215;SDS011;34005;48.844;10.098;2022-09-03T06:56:02;1.75;;;1.58;;
48215;SDS011;34005;48.844;10.098;2022-09-03T06:58:33;2.60;;;2.13;;
48215;SDS011;34005;48.844;10.098;2022-09-03T07:01:03;2.45;;;1.77;;
48215;SDS011;34005;48.844;10.098;2022-09-03T07:03:34;3.80;;;2.20;;
48215;SDS011;34005;48.844;10.098;2022-09-03T07:06:03;5.07;;;1.88;;
48215;SDS011;34005;48.844;10.098;2022-09-03T07:08:32;2.15;;;1.83;;
48215;SDS011;34005;48.844;10.098;2022-09-03T07:11:01;3.85;;;2.38;;
48215;SDS011;34005;48.844;10.098;2022-09-03T07:13:31;2.65;;;1.88;;
48215;SDS011;34005;48.844;10.098;2022-09-03T07:15:59;2.75;;;1.98;;
48215;SDS011;34005;48.844;10.098;2022-09-03T07:18:28;2.63;;;2.42;;
48215;SDS011;34005;48.844;10.098;2022-09-03T07:20:58;2.97;;;2.03;;
48215;SDS011;34005;48.844;10.098;2022-09-03T07:23:27;2.42;;;2.22;;
48215;SDS011;34005;48.844;10.098;2022-09-03T07:25:55;8.57;;;3.15;;
48215;SDS011;34005;48.844;10.098;2022-09-03T07:28:24;3.03;;;2.63;;
48215;SDS011;34005;48.844;10.098;2022-09-03T07:30:53;3.78;;;3.30;;
48215;SDS011;34005;48.844;10.098;2022-09-03T07:33:27;3.63;;;2.95;;
48215;SDS011;34005;48.844;10.098;2022-09-03T07:36:04;6.18;;;3.20;;
48215;SDS011;34005;48.844;10.098;2022-09-03T07:38:33;3.30;;;2.78;;
48215;SDS011;34005;48.844;10.098;2022-09-03T07:41:02;3.88;;;3.15;;
48215;SDS011;34005;48.844;10.098;2022-09-03T07:43:32;3.45;;;2.78;;
48215;SDS011;34005;48.844;10.098;2022-09-03T07:46:01;4.97;;;3.40;;
48215;SDS011;34005;48.844;10.098;2022-09-03T07:48:29;3.70;;;2.47;;
48215;SDS011;34005;48.844;10.098;2022-09-03T07:51:03;3.75;;;3.00;;
48215;SDS011;34005;48.844;10.098;2022-09-03T07:53:31;6.07;;;3.33;;
48215;SDS011;34005;48.844;10.098;2022-09-03T07:56:00;2.50;;;2.30;;
48215;SDS011;34005;48.844;10.098;2022-09-03T07:58:28;3.28;;;2.92;;
48215;SDS011;34005;48.844;10.098;2022-09-03T08:00:57;3.20;;;2.50;;
48215;SDS011;34005;48.844;10.098;2022-09-03T08:03:26;3.17;;;2.83;;
48215;SDS011;34005;48.844;10.098;2022-09-03T08:05:53;3.28;;;2.92;;
48215;SDS011;34005;48.844;10.098;2022-09-03T08:08:28;2.92;;;2.63;;
48215;SDS011;34005;48.844;10.098;2022-09-03T08:11:04;3.40;;;2.95;;
48215;SDS011;34005;48.844;10.098;2022-09-03T08:13:37;3.05;;;2.75;;
48215;SDS011;34005;48.844;10.098;2022-09-03T08:16:06;3.25;;;2.80;;
48215;SDS011;34005;48.844;10.098;2022-09-03T08:18:34;5.32;;;3.58;;
48215;SDS011;34005;48.844;10.098;2022-09-03T08:21:04;4.38;;;2.90;;
48215;SDS011;34005;48.844;10.098;2022-09-03T08:23:36;3.30;;;3.00;;
48215;SDS011;34005;48.844;10.098;2022-09-03T08:26:04;3.35;;;2.78;;
48215;SDS011;34005;48.844;10.098;2022-09-03T08:28:33;3.70;;;2.72;;
48215;SDS011;34005;48.844;10.098;2022-09-03T08:31:04;2.45;;;2.25;;
48215;SDS011;34005;48.844;10.098;2022-09-03T08:33:33;2.95;;;2.65;;
48215;SDS011;34005;48.844;10.098;2022-09-03T08:36:04;5.18;;;2.70;;
48215;SDS011;34005;48.844;10.098;2022-09-03T08:38:34;2.60;;;2.40;;
48215;SDS011;34005;48.844;10.098;2022-09-03T08:41:06;2.85;;;2.58;;
48215;SDS011;34005;48.844;10.098;2022-09-03T08:43:40;6.10;;;2.85;;
48215;SDS011;34005;48.844;10.098;2022-09-03T08:46:23;3.45;;;2.45;;
48215;SDS011;34005;48.844;10.098;2022-09-03T08:48:58;3.20;;;2.75;;
48215;SDS011;34005;48.844;10.098;2022-09-03T08:51:26;2.92;;;2.40;;
48215;SDS011;34005;48.844;10.098;2022-09-03T08:53:54;3.03;;;2.25;;
48215;SDS011;34005;48.844;10.098;2022-09-03T08:56:26;2.53;;;2.33;;
48215;SDS011;34005;48.844;10.098;2022-09-03T08:58:57;3.67;;;2.95;;
48215;SDS011;34005;48.844;10.098;2022-09-03T09:01:29;4.18;;;2.75;;
48215;SDS011;34005;48.844;10.098;2022-09-03T09:04:09;2.67;;;2.13;;
48215;SDS011;34005;48.844;10.098;2022-09-03T09:09:24;3.33;;;2.33;;
48215;SDS011;34005;48.844;10.098;2022-09-03T09:12:00;3.58;;;2.28;;
48215;SDS011;34005;48.844;10.098;2022-09-03T09:14:43;3.05;;;2.33;;
48215;SDS011;34005;48.844;10.098;2022-09-03T09:17:22;2.50;;;2.30;;
48215;SDS011;34005;48.844;10.098;2022-09-03T09:20:00;2.25;;;2.10;;
48215;SDS011;34005;48.844;10.098;2022-09-03T09:22:34;2.90;;;2.35;;
48215;SDS011;34005;48.844;10.098;2022-09-03T09:25:05;6.82;;;2.20;;
48215;SDS011;34005;48.844;10.098;2022-09-03T09:27:44;5.85;;;1.98;;
48215;SDS011;34005;48.844;10.098;2022-09-03T09:30:17;2.83;;;1.85;;
48215;SDS011;34005;48.844;10.098;2022-09-03T09:32:45;2.42;;;2.22;;
48215;SDS011;34005;48.844;10.098;2022-09-03T09:35:14;3.25;;;2.50;;
48215;SDS011;34005;48.844;10.098;2022-09-03T09:37:46;2.42;;;2.05;;
48215;SDS011;34005;48.844;10.098;2022-09-03T09:40:28;2.67;;;2.47;;
48215;SDS011;34005;48.844;10.098;2022-09-03T09:43:09;4.30;;;2.28;;
48215;SDS011;34005;48.844;10.098;2022-09-03T09:45:39;3.10;;;2.30;;
48215;SDS011;34005;48.844;10.098;2022-09-03T09:48:12;4.25;;;2.53;;
48215;SDS011;34005;48.844;10.098;2022-09-03T09:50:45;2.15;;;1.92;;
48215;SDS011;34005;48.844;10.098;2022-09-03T09:53:12;2.30;;;2.10;;
48215;SDS011;34005;48.844;10.098;2022-09-03T09:55:47;2.15;;;1.95;;
48215;SDS011;34005;48.844;10.098;2022-09-03T09:58:19;1.83;;;1.67;;
48215;SDS011;34005;48.844;10.098;2022-09-03T10:00:55;1.83;;;1.73;;
48215;SDS011;34005;48.844;10.098;2022-09-03T10:03:25;3.22;;;2.00;;
48215;SDS011;34005;48.844;10.098;2022-09-03T10:06:00;2.65;;;2.30;;
48215;SDS011;34005;48.844;10.098;2022-09-03T10:08:52;3.08;;;1.98;;
48215;SDS011;34005;48.844;10.098;2022-09-03T10:11:31;3.22;;;1.90;;
48215;SDS011;34005;48.844;10.098;2022-09-03T10:14:05;2.45;;;2.25;;
48215;SDS011;34005;48.844;10.098;2022-09-03T10:16:40;2.38;;;2.10;;
48215;SDS011;34005;48.844;10.098;2022-09-03T10:19:17;2.47;;;1.98;;
48215;SDS011;34005;48.844;10.098;2022-09-03T10:21:48;1.85;;;1.40;;
48215;SDS011;34005;48.844;10.098;2022-09-03T10:24:36;3.85;;;1.95;;
48215;SDS011;34005;48.844;10.098;2022-09-03T10:27:14;2.00;;;1.80;;
48215;SDS011;34005;48.844;10.098;2022-09-03T10:29:45;2.67;;;2.00;;
48215;SDS011;34005;48.844;10.098;2022-09-03T10:32:16;2.20;;;1.85;;
48215;SDS011;34005;48.844;10.098;2022-09-03T10:35:05;2.85;;;2.08;;
48215;SDS011;34005;48.844;10.098;2022-09-03T10:37:46;2.08;;;1.88;;
48215;SDS011;34005;48.844;10.098;2022-09-03T10:40:24;3.88;;;1.90;;
48215;SDS011;34005;48.844;10.098;2022-09-03T10:43:02;2.10;;;1.88;;
48215;SDS011;34005;48.844;10.098;2022-09-03T10:45:45;1.88;;;1.77;;
48215;SDS011;34005;48.844;10.098;2022-09-03T10:48:29;2.35;;;1.85;;
48215;SDS011;34005;48.844;10.098;2022-09-03T10:51:18;2.78;;;1.85;;
48215;SDS011;34005;48.844;10.098;2022-09-03T10:53:54;1.90;;;1.80;;
48215;SDS011;34005;48.844;10.098;2022-09-03T10:56:38;2.00;;;1.73;;
48215;SDS011;34005;48.844;10.098;2022-09-03T10:59:18;1.60;;;1.20;;
48215;SDS011;34005;48.844;10.098;2022-09-03T11:02:04;1.70;;;1.60;;
48215;SDS011;34005;48.844;10.098;2022-09-03T11:04:50;1.77;;;1.67;;
48215;SDS011;34005;48.844;10.098;2022-09-03T11:07:24;2.35;;;1.63;;
48215;SDS011;34005;48.844;10.098;2022-09-03T11:09:58;1.38;;;1.08;;
48215;SDS011;34005;48.844;10.098;2022-09-03T11:12:36;2.53;;;1.00;;
48215;SDS011;34005;48.844;10.098;2022-09-03T11:15:10;1.42;;;1.33;;
48215;SDS011;34005;48.844;10.098;2022-09-03T11:17:45;1.40;;;1.30;;
48215;SDS011;34005;48.844;10.098;2022-09-03T11:20:17;1.65;;;1.30;;
48215;SDS011;34005;48.844;10.098;2022-09-03T11:22:50;1.42;;;1.30;;
48215;SDS011;34005;48.844;10.098;2022-09-03T11:25:21;1.85;;;1.75;;
48215;SDS011;34005;48.844;10.098;2022-09-03T11:28:01;1.63;;;1.52;;
48215;SDS011;34005;48.844;10.098;2022-09-03T11:30:39;2.60;;;2.20;;
48215;SDS011;34005;48.844;10.098;2022-09-03T11:35:55;1.45;;;1.35;;
48215;SDS011;34005;48.844;10.098;2022-09-03T11:38:26;1.55;;;1.45;;
48215;SDS011;34005;48.844;10.098;2022-09-03T11:40:58;1.90;;;1.50;;
48215;SDS011;34005;48.844;10.098;2022-09-03T11:43:38;1.58;;;1.48;;
48215;SDS011;34005;48.844;10.098;2022-09-03T11:46:08;2.25;;;1.42;;
48215;SDS011;34005;48.844;10.098;2022-09-03T11:48:42;3.17;;;1.45;;
48215;SDS011;34005;48.844;10.098;2022-09-03T11:51:18;1.73;;;1.52;;
48215;SDS011;34005;48.844;10.098;2022-09-03T11:53:56;1.60;;;1.50;;
48215;SDS011;34005;48.844;10.098;2022-09-03T11:56:26;1.65;;;1.55;;
48215;SDS011;34005;48.844;10.098;2022-09-03T11:59:23;1.23;;;1.23;;
48215;SDS011;34005;48.844;10.098;2022-09-03T12:01:55;2.88;;;1.48;;
48215;SDS011;34005;48.844;10.098;2022-09-03T12:04:31;2.42;;;1.42;;
48215;SDS011;34005;48.844;10.098;2022-09-03T12:07:08;1.55;;;1.45;;
48215;SDS011;34005;48.844;10.098;2022-09-03T12:10:00;2.35;;;1.77;;
48215;SDS011;34005;48.844;10.098;2022-09-03T12:12:48;1.48;;;1.38;;
48215;SDS011;34005;48.844;10.098;2022-09-03T12:15:49;1.60;;;1.50;;
48215;SDS011;34005;48.844;10.098;2022-09-03T12:18:34;1.40;;;1.30;;
48215;SDS011;34005;48.844;10.098;2022-09-03T12:21:06;1.17;;;1.15;;
48215;SDS011;34005;48.844;10.098;2022-09-03T12:23:39;3.13;;;1.30;;
48215;SDS011;34005;48.844;10.098;2022-09-03T12:26:11;1.95;;;1.60;;
48215;SDS011;34005;48.844;10.098;2022-09-03T12:31:13;3.00;;;1.50;;
48215;SDS011;34005;48.844;10.098;2022-09-03T12:33:51;1.80;;;1.38;;
48215;SDS011;34005;48.844;10.098;2022-09-03T12:36:22;2.15;;;1.52;;
48215;SDS011;34005;48.844;10.098;2022-09-03T12:38:52;2.45;;;2.00;;
48215;SDS011;34005;48.844;10.098;2022-09-03T12:41:45;1.23;;;1.13;;
48215;SDS011;34005;48.844;10.098;2022-09-03T12:44:25;1.48;;;1.20;;
48215;SDS011;34005;48.844;10.098;2022-09-03T12:47:02;1.50;;;1.40;;
48215;SDS011;34005;48.844;10.098;2022-09-03T12:49:56;1.65;;;1.40;;
48215;SDS011;34005;48.844;10.098;2022-09-03T12:52:34;1.17;;;1.10;;
48215;SDS011;34005;48.844;10.098;2022-09-03T12:55:06;1.85;;;1.48;;
48215;SDS011;34005;48.844;10.098;2022-09-03T12:57:54;1.83;;;1.70;;
48215;SDS011;34005;48.844;10.098;2022-09-03T13:00:29;1.63;;;1.52;;
48215;SDS011;34005;48.844;10.098;2022-09-03T13:03:01;1.55;;;1.13;;
48215;SDS011;34005;48.844;10.098;2022-09-03T13:05:33;4.75;;;1.67;;
48215;SDS011;34005;48.844;10.098;2022-09-03T13:08:12;9.30;;;6.47;;
48215;SDS011;34005;48.844;10.098;2022-09-03T13:10:45;5.63;;;3.38;;
48215;SDS011;34005;48.844;10.098;2022-09-03T13:13:20;2.90;;;0.90;;
48215;SDS011;34005;48.844;10.098;2022-09-03T13:15:59;0.52;;;0.40;;
48215;SDS011;34005;48.844;10.098;2022-09-03T13:21:29;1.27;;;0.38;;
48215;SDS011;34005;48.844;10.098;2022-09-03T13:24:08;5.20;;;0.65;;
48215;SDS011;34005;48.844;10.098;2022-09-03T13:27:03;2.97;;;0.82;;
48215;SDS011;34005;48.844;10.098;2022-09-03T13:30:07;3.03;;;0.40;;
48215;SDS011;34005;48.844;10.098;2022-09-03T13:32:46;1.00;;;0.50;;
48215;SDS011;34005;48.844;10.098;2022-09-03T13:35:26;1.80;;;0.47;;
48215;SDS011;34005;48.844;10.098;2022-09-03T13:37:58;3.25;;;0.73;;
48215;SDS011;34005;48.844;10.098;2022-09-03T13:40:37;4.47;;;1.00;;
48215;SDS011;34005;48.844;10.098;2022-09-03T13:43:17;6.47;;;1.33;;
48215;SDS011;34005;48.844;10.098;2022-09-03T13:45:52;3.72;;;0.80;;
48215;SDS011;34005;48.844;10.098;2022-09-03T13:48:24;6.63;;;0.98;;
48215;SDS011;34005;48.844;10.098;2022-09-03T13:51:17;1.27;;;0.80;;
48215;SDS011;34005;48.844;10.098;2022-09-03T13:53:52;3.58;;;0.98;;
48215;SDS011;34005;48.844;10.098;2022-09-03T13:56:34;3.00;;;0.60;;
48215;SDS011;34005;48.844;10.098;2022-09-03T13:59:11;3.03;;;0.68;;
48215;SDS011;34005;48.844;10.098;2022-09-03T14:01:57;0.45;;;0.40;;
48215;SDS011;34005;48.844;10.098;2022-09-03T14:04:39;0.88;;;0.57;;
48215;SDS011;34005;48.844;10.098;2022-09-03T14:07:16;2.42;;;0.50;;
48215;SDS011;34005;48.844;10.098;2022-09-03T14:09:53;1.73;;;0.45;;
48215;SDS011;34005;48.844;10.098;2022-09-03T14:12:34;0.35;;;0.30;;
48215;SDS011;34005;48.844;10.098;2022-09-03T14:15:09;3.65;;;0.40;;
48215;SDS011;34005;48.844;10.098;2022-09-03T14:17:45;1.35;;;0.57;;
48215;SDS011;34005;48.844;10.098;2022-09-03T14:20:19;1.92;;;0.82;;
48215;SDS011;34005;48.844;10.098;2022-09-03T14:22:51;1.67;;;1.02;;
48215;SDS011;34005;48.844;10.098;2022-09-03T14:25:22;4.47;;;1.00;;
48215;SDS011;34005;48.844;10.098;2022-09-03T14:27:53;1.85;;;0.77;;
48215;SDS011;34005;48.844;10.098;2022-09-03T14:30:29;4.38;;;1.50;;
48215;SDS011;34005;48.844;10.098;2022-09-03T14:33:09;2.92;;;0.88;;
48215;SDS011;34005;48.844;10.098;2022-09-03T14:35:51;3.35;;;0.73;;
48215;SDS011;34005;48.844;10.098;2022-09-03T14:44:49;1.05;;;0.60;;
48215;SDS011;34005;48.844;10.098;2022-09-03T14:47:29;2.47;;;0.60;;
48215;SDS011;34005;48.844;10.098;2022-09-03T14:50:17;1.08;;;0.68;;
48215;SDS011;34005;48.844;10.098;2022-09-03T14:53:05;3.25;;;0.80;;
48215;SDS011;34005;48.844;10.098;2022-09-03T14:58:42;1.73;;;0.50;;
48215;SDS011;34005;48.844;10.098;2022-09-03T15:01:28;0.82;;;0.50;;
48215;SDS011;34005;48.844;10.098;2022-09-03T15:07:20;1.42;;;0.65;;
48215;SDS011;34005;48.844;10.098;2022-09-03T15:10:01;1.15;;;0.70;;
48215;SDS011;34005;48.844;10.098;2022-09-03T15:12:34;1.55;;;0.80;;
48215;SDS011;34005;48.844;10.098;2022-09-03T15:15:07;4.38;;;2.20;;
48215;SDS011;34005;48.844;10.098;2022-09-03T15:17:43;1.55;;;0.73;;
48215;SDS011;34005;48.844;10.098;2022-09-03T15:20:21;0.75;;;0.75;;
48215;SDS011;34005;48.844;10.098;2022-09-03T15:23:01;1.02;;;0.80;;
48215;SDS011;34005;48.844;10.098;2022-09-03T15:25:51;3.95;;;1.08;;
48215;SDS011;34005;48.844;10.098;2022-09-03T15:28:37;1.15;;;0.75;;
48215;SDS011;34005;48.844;10.098;2022-09-03T15:31:15;1.08;;;0.60;;
48215;SDS011;34005;48.844;10.098;2022-09-03T15:33:52;1.95;;;0.77;;
48215;SDS011;34005;48.844;10.098;2022-09-03T15:36:32;0.77;;;0.55;;
48215;SDS011;34005;48.844;10.098;2022-09-03T15:39:03;1.90;;;0.77;;